createdAt,value
2022-09-13T00:01:41.575Z,17.30
2022-09-13T00:04:08.391Z,17.30
2022-09-13T00:06:35.093Z,17.30
2022-09-13T00:09:01.686Z,17.30
2022-09-13T00:11:28.222Z,17.30
2022-09-13T00:13:54.753Z,17.30
2022-09-13T00:16:21.352Z,17.30
2022-09-13T00:18:48.170Z,17.20
2022-09-13T00:21:14.801Z,17.20
2022-09-13T00:23:41.647Z,17.20
2022-09-13T00:26:08.286Z,17.20
2022-09-13T00:28:34.859Z,17.20
2022-09-13T00:31:01.706Z,17.30
2022-09-13T00:33:28.432Z,17.20
2022-09-13T00:35:55.025Z,17.20
2022-09-13T00:38:21.608Z,17.20
2022-09-13T00:40:48.291Z,17.30
2022-09-13T00:43:14.797Z,17.30
2022-09-13T00:45:41.432Z,17.20
2022-09-13T00:48:08.058Z,17.30
2022-09-13T00:50:34.622Z,17.20
2022-09-13T00:53:01.178Z,17.20
2022-09-13T00:55:27.709Z,17.20
2022-09-13T00:57:54.215Z,17.20
2022-09-13T01:00:20.824Z,17.20
2022-09-13T01:02:47.540Z,17.10
2022-09-13T01:05:14.090Z,17.10
2022-09-13T01:07:41.792Z,17.10
2022-09-13T01:10:08.422Z,17.10
2022-09-13T01:12:35.291Z,17.10
2022-09-13T01:15:01.847Z,17.00
2022-09-13T01:17:28.462Z,17.10
2022-09-13T01:19:54.975Z,17.10
2022-09-13T01:22:21.571Z,17.10
2022-09-13T01:24:48.122Z,17.20
2022-09-13T01:27:14.682Z,17.20
2022-09-13T01:29:41.255Z,17.20
2022-09-13T01:32:07.875Z,17.20
2022-09-13T01:34:34.430Z,17.20
2022-09-13T01:37:01.065Z,17.20
2022-09-13T01:39:27.694Z,17.30
2022-09-13T01:41:54.625Z,17.20
2022-09-13T01:44:21.406Z,17.30
2022-09-13T01:46:47.945Z,17.30
2022-09-13T01:49:14.761Z,17.20
2022-09-13T01:51:41.883Z,17.20
2022-09-13T01:54:08.536Z,17.20
2022-09-13T01:56:35.065Z,17.20
2022-09-13T01:59:01.672Z,17.20
2022-09-13T02:01:28.334Z,17.20
2022-09-13T02:03:55.670Z,17.20
2022-09-13T02:06:22.317Z,17.20
2022-09-13T02:08:49.193Z,17.20
2022-09-13T02:11:17.083Z,17.20
2022-09-13T02:13:43.652Z,17.20
2022-09-13T02:16:10.238Z,17.20
2022-09-13T02:18:36.895Z,17.20
2022-09-13T02:21:03.410Z,17.20
2022-09-13T02:23:31.399Z,17.10
2022-09-13T02:25:57.945Z,17.10
2022-09-13T02:28:24.472Z,17.10
2022-09-13T02:30:51.541Z,17.10
2022-09-13T02:33:18.066Z,17.00
2022-09-13T02:35:44.598Z,17.00
2022-09-13T02:38:11.171Z,17.00
2022-09-13T02:40:37.686Z,17.00
2022-09-13T02:43:04.242Z,17.00
2022-09-13T02:45:31.217Z,17.00
2022-09-13T02:47:57.984Z,17.00
2022-09-13T02:50:24.992Z,17.00
2022-09-13T02:52:53.050Z,17.00
2022-09-13T02:55:21.570Z,17.10
2022-09-13T02:57:48.117Z,17.00
2022-09-13T03:00:14.657Z,17.00
2022-09-13T03:02:41.350Z,17.00
2022-09-13T03:05:07.886Z,17.00
2022-09-13T03:07:34.447Z,17.00
2022-09-13T03:10:01.291Z,17.00
2022-09-13T03:12:29.816Z,17.00
2022-09-13T03:14:56.613Z,17.00
2022-09-13T03:17:23.128Z,17.00
2022-09-13T03:19:49.738Z,17.00
2022-09-13T03:22:16.235Z,17.10
2022-09-13T03:24:42.776Z,17.10
2022-09-13T03:27:09.294Z,17.10
2022-09-13T03:29:35.844Z,17.10
2022-09-13T03:32:02.483Z,17.10
2022-09-13T03:34:29.043Z,17.10
2022-09-13T03:36:55.613Z,17.10
2022-09-13T03:39:22.166Z,17.00
2022-09-13T03:41:48.766Z,17.00
2022-09-13T03:44:15.450Z,17.00
2022-09-13T03:46:42.451Z,17.00
2022-09-13T03:49:12.197Z,17.10
2022-09-13T03:51:38.838Z,17.10
2022-09-13T03:54:05.407Z,17.10
2022-09-13T03:56:31.960Z,17.00
2022-09-13T03:58:58.477Z,17.00
2022-09-13T04:01:25.070Z,17.00
2022-09-13T04:03:56.327Z,17.00
2022-09-13T04:06:23.479Z,17.00
2022-09-13T04:08:50.162Z,17.00
2022-09-13T04:11:16.828Z,17.00
2022-09-13T04:13:43.414Z,17.00
2022-09-13T04:16:09.962Z,17.00
2022-09-13T04:18:36.569Z,17.10
2022-09-13T04:21:04.468Z,17.00
2022-09-13T04:23:31.181Z,17.00
2022-09-13T04:25:57.727Z,17.00
2022-09-13T04:28:24.288Z,17.00
2022-09-13T04:30:50.948Z,16.90
2022-09-13T04:33:17.554Z,17.00
2022-09-13T04:35:44.386Z,17.00
2022-09-13T04:38:11.063Z,17.00
2022-09-13T04:40:37.988Z,17.00
2022-09-13T04:43:04.498Z,17.00
2022-09-13T04:45:31.179Z,17.00
2022-09-13T04:47:57.747Z,16.90
2022-09-13T04:50:24.424Z,16.90
2022-09-13T04:52:51.004Z,16.80
2022-09-13T04:55:17.540Z,16.90
2022-09-13T04:57:44.130Z,16.80
2022-09-13T05:00:10.937Z,16.80
2022-09-13T05:02:37.509Z,16.80
2022-09-13T05:05:04.087Z,16.80
2022-09-13T05:07:30.614Z,16.80
2022-09-13T05:09:57.173Z,16.90
2022-09-13T05:12:23.985Z,16.80
2022-09-13T05:14:50.503Z,16.80
2022-09-13T05:17:17.143Z,16.80
2022-09-13T05:19:43.746Z,16.90
2022-09-13T05:22:10.313Z,16.80
2022-09-13T05:24:36.860Z,16.80
2022-09-13T05:27:03.389Z,16.80
2022-09-13T05:29:29.950Z,16.80
2022-09-13T05:31:56.471Z,16.80
2022-09-13T05:34:23.024Z,16.90
2022-09-13T05:36:54.073Z,16.90
2022-09-13T05:39:36.503Z,16.90
2022-09-13T05:42:08.802Z,17.00
2022-09-13T05:44:35.395Z,17.00
2022-09-13T05:47:01.914Z,17.00
2022-09-13T05:49:28.500Z,17.00
2022-09-13T05:51:55.039Z,17.00
2022-09-13T05:54:21.644Z,17.00
2022-09-13T05:56:48.441Z,17.00
2022-09-13T05:59:15.126Z,17.00
2022-09-13T06:01:42.117Z,17.00
2022-09-13T06:04:08.775Z,17.00
2022-09-13T06:06:35.998Z,17.00
2022-09-13T06:09:02.671Z,17.00
2022-09-13T06:11:29.266Z,17.00
2022-09-13T06:13:55.839Z,16.90
2022-09-13T06:16:22.524Z,16.90
2022-09-13T06:18:49.710Z,16.90
2022-09-13T06:21:17.981Z,16.90
2022-09-13T06:23:44.830Z,16.80
2022-09-13T06:26:11.365Z,16.80
2022-09-13T06:28:37.881Z,16.90
2022-09-13T06:31:04.497Z,16.90
2022-09-13T06:33:31.245Z,16.90
2022-09-13T06:35:57.794Z,16.90
2022-09-13T06:38:24.817Z,16.90
2022-09-13T06:40:51.390Z,17.00
2022-09-13T06:43:17.967Z,17.00
2022-09-13T06:45:44.560Z,17.00
2022-09-13T06:48:11.113Z,17.00
2022-09-13T06:50:37.642Z,17.00
2022-09-13T06:53:04.206Z,17.00
2022-09-13T06:55:30.741Z,17.00
2022-09-13T06:57:57.541Z,17.00
2022-09-13T07:00:24.092Z,17.10
2022-09-13T07:02:50.631Z,17.10
2022-09-13T07:05:18.870Z,17.10
2022-09-13T07:07:45.463Z,17.10
2022-09-13T07:10:12.285Z,17.10
2022-09-13T07:12:39.145Z,17.20
2022-09-13T07:15:05.774Z,17.20
2022-09-13T07:17:32.356Z,17.20
2022-09-13T07:19:58.981Z,17.30
2022-09-13T07:22:27.757Z,17.30
2022-09-13T07:24:54.521Z,17.30
2022-09-13T07:27:21.101Z,17.30
2022-09-13T07:29:47.631Z,17.30
2022-09-13T07:32:14.433Z,17.30
2022-09-13T07:34:41.007Z,17.40
2022-09-13T07:37:07.761Z,17.40
2022-09-13T07:39:34.318Z,17.40
2022-09-13T07:42:00.818Z,17.50
2022-09-13T07:44:27.355Z,17.50
2022-09-13T07:46:53.951Z,17.50
2022-09-13T07:49:20.534Z,17.60
2022-09-13T07:51:47.138Z,17.60
2022-09-13T07:54:13.872Z,17.70
2022-09-13T07:56:41.061Z,17.80
2022-09-13T07:59:07.638Z,17.90
2022-09-13T08:01:34.481Z,17.90
2022-09-13T08:04:01.253Z,18.00
2022-09-13T08:06:27.872Z,18.10
2022-09-13T08:08:54.395Z,18.20
2022-09-13T08:11:21.103Z,18.30
2022-09-13T08:13:48.100Z,18.40
2022-09-13T08:16:14.707Z,18.50
2022-09-13T08:18:41.353Z,18.50
2022-09-13T08:21:07.922Z,18.60
2022-09-13T08:23:34.689Z,18.70
2022-09-13T08:26:01.731Z,18.80
2022-09-13T08:28:28.285Z,18.90
2022-09-13T08:30:54.833Z,18.90
2022-09-13T08:33:21.385Z,19.00
2022-09-13T08:35:47.975Z,19.10
2022-09-13T08:38:14.535Z,19.20
2022-09-13T08:40:41.037Z,19.20
2022-09-13T08:43:07.682Z,19.20
2022-09-13T08:45:34.218Z,19.20
2022-09-13T08:48:00.786Z,19.20
2022-09-13T08:50:27.468Z,19.30
2022-09-13T08:52:53.986Z,19.50
2022-09-13T08:55:20.537Z,19.60
2022-09-13T08:57:47.042Z,19.60
2022-09-13T09:00:16.733Z,19.70
2022-09-13T09:02:45.488Z,19.90
2022-09-13T09:05:12.044Z,20.10
2022-09-13T09:07:38.870Z,20.20
2022-09-13T09:10:05.375Z,20.30
2022-09-13T09:12:32.053Z,20.50
2022-09-13T09:14:58.622Z,20.60
2022-09-13T09:17:25.246Z,20.70
2022-09-13T09:19:53.391Z,20.80
2022-09-13T09:22:21.854Z,20.90
2022-09-13T09:24:48.716Z,21.00
2022-09-13T09:27:15.317Z,21.10
2022-09-13T09:29:44.074Z,21.10
2022-09-13T09:32:10.616Z,21.20
2022-09-13T09:34:42.642Z,21.30
2022-09-13T09:37:09.300Z,21.50
2022-09-13T09:39:39.213Z,21.60
2022-09-13T09:42:05.845Z,21.60
2022-09-13T09:44:33.869Z,21.70
2022-09-13T09:47:00.588Z,21.80
2022-09-13T09:49:46.094Z,21.80
2022-09-13T09:52:12.845Z,21.90
2022-09-13T09:54:41.565Z,22.00
2022-09-13T09:57:08.155Z,22.00
2022-09-13T09:59:34.700Z,22.10
2022-09-13T10:02:01.920Z,22.10
2022-09-13T10:04:29.035Z,22.20
2022-09-13T10:06:55.569Z,22.30
2022-09-13T10:09:22.379Z,22.30
2022-09-13T10:11:49.001Z,22.30
2022-09-13T10:14:16.778Z,22.40
2022-09-13T10:16:43.323Z,22.40
2022-09-13T10:19:11.573Z,22.40
2022-09-13T10:21:38.279Z,22.40
2022-09-13T10:24:05.025Z,22.50
2022-09-13T10:26:31.546Z,22.40
2022-09-13T10:28:58.194Z,22.40
2022-09-13T10:31:24.788Z,22.50
2022-09-13T10:33:51.395Z,22.60
2022-09-13T10:36:29.603Z,22.80
2022-09-13T10:39:04.528Z,22.90
2022-09-13T10:41:31.072Z,22.90
2022-09-13T10:43:57.731Z,22.90
2022-09-13T10:46:24.366Z,23.00
2022-09-13T10:48:57.367Z,23.10
2022-09-13T10:51:23.938Z,23.10
2022-09-13T10:53:50.486Z,23.20
2022-09-13T10:56:16.998Z,23.30
2022-09-13T10:58:43.578Z,23.40
2022-09-13T11:01:10.295Z,23.40
2022-09-13T11:03:37.004Z,23.50
2022-09-13T11:06:03.533Z,23.60
2022-09-13T11:08:30.077Z,23.70
2022-09-13T11:10:56.681Z,23.90
2022-09-13T11:13:23.199Z,24.00
2022-09-13T11:15:49.728Z,24.10
2022-09-13T11:18:16.296Z,24.10
2022-09-13T11:20:42.825Z,24.20
2022-09-13T11:23:09.428Z,24.10
2022-09-13T11:25:36.098Z,24.20
2022-09-13T11:28:02.702Z,24.30
2022-09-13T11:30:30.168Z,24.30
2022-09-13T11:32:57.394Z,24.30
2022-09-13T11:35:23.938Z,24.30
2022-09-13T11:37:50.580Z,24.30
2022-09-13T11:40:17.335Z,24.40
2022-09-13T11:42:43.941Z,24.50
2022-09-13T11:45:10.476Z,24.60
2022-09-13T11:47:37.048Z,24.60
2022-09-13T11:50:03.850Z,24.60
2022-09-13T11:52:30.385Z,24.70
2022-09-13T11:54:57.060Z,24.80
2022-09-13T11:57:23.737Z,24.90
2022-09-13T11:59:50.419Z,25.00
2022-09-13T12:02:17.081Z,25.20
2022-09-13T12:04:43.849Z,25.20
2022-09-13T12:07:10.417Z,25.30
2022-09-13T12:09:37.077Z,25.30
2022-09-13T12:12:04.034Z,25.30
2022-09-13T12:14:30.728Z,25.30
2022-09-13T12:16:57.355Z,25.40
2022-09-13T12:19:23.969Z,25.60
2022-09-13T12:21:50.566Z,25.60
2022-09-13T12:24:17.153Z,25.60
2022-09-13T12:26:45.125Z,25.70
2022-09-13T12:29:11.656Z,25.80
2022-09-13T12:31:38.371Z,25.80
2022-09-13T12:34:05.262Z,25.70
2022-09-13T12:36:31.988Z,25.70
2022-09-13T12:38:59.022Z,25.70
2022-09-13T12:41:25.546Z,25.70
2022-09-13T12:43:52.293Z,25.70
2022-09-13T12:46:18.838Z,25.40
2022-09-13T12:48:45.476Z,25.20
2022-09-13T12:51:12.100Z,25.20
2022-09-13T12:53:38.637Z,25.20
2022-09-13T12:56:05.276Z,25.10
2022-09-13T12:58:31.890Z,25.10
2022-09-13T13:00:58.558Z,25.10
2022-09-13T13:03:25.381Z,25.10
2022-09-13T13:05:51.970Z,25.30
2022-09-13T13:08:18.672Z,25.20
2022-09-13T13:10:45.313Z,25.30
2022-09-13T13:13:11.915Z,25.20
2022-09-13T13:15:38.608Z,25.20
2022-09-13T13:18:05.120Z,25.20
2022-09-13T13:20:31.707Z,25.20
2022-09-13T13:22:58.207Z,25.20
2022-09-13T13:25:24.756Z,25.30
2022-09-13T13:27:54.986Z,25.40
2022-09-13T13:30:21.571Z,25.50
2022-09-13T13:32:48.313Z,25.60
2022-09-13T13:35:14.822Z,25.70
2022-09-13T13:37:41.388Z,25.90
2022-09-13T13:40:07.973Z,25.90
2022-09-13T13:42:38.252Z,25.90
2022-09-13T13:45:04.908Z,26.00
2022-09-13T13:47:32.617Z,26.10
2022-09-13T13:50:00.004Z,26.10
2022-09-13T13:52:26.548Z,26.00
2022-09-13T13:54:58.320Z,25.80
2022-09-13T13:57:25.138Z,25.60
2022-09-13T13:59:51.713Z,25.70
2022-09-13T14:02:18.341Z,25.70
2022-09-13T14:04:44.913Z,25.70
2022-09-13T14:07:19.510Z,25.70
2022-09-13T14:09:46.550Z,25.70
2022-09-13T14:12:13.116Z,25.80
2022-09-13T14:14:39.665Z,25.70
2022-09-13T14:17:06.282Z,25.90
2022-09-13T14:19:32.873Z,25.90
2022-09-13T14:21:59.428Z,25.90
2022-09-13T14:24:26.000Z,25.90
2022-09-13T14:26:52.608Z,25.60
2022-09-13T14:29:19.300Z,25.70
2022-09-13T14:31:45.873Z,25.60
2022-09-13T14:34:12.460Z,25.60
2022-09-13T14:36:39.071Z,25.70
2022-09-13T14:39:05.723Z,25.80
2022-09-13T14:41:32.298Z,25.80
2022-09-13T14:43:58.797Z,25.90
2022-09-13T14:46:25.347Z,25.90
2022-09-13T14:48:52.149Z,25.80
2022-09-13T14:51:18.776Z,25.70
2022-09-13T14:53:45.371Z,25.70
2022-09-13T14:56:11.923Z,25.60
2022-09-13T14:58:38.433Z,25.60
2022-09-13T15:01:05.561Z,25.70
2022-09-13T15:03:32.161Z,25.70
2022-09-13T15:05:58.641Z,25.60
2022-09-13T15:08:25.566Z,25.50
2022-09-13T15:10:52.252Z,25.40
2022-09-13T15:13:18.746Z,25.30
2022-09-13T15:15:45.311Z,25.20
2022-09-13T15:18:11.834Z,25.10
2022-09-13T15:20:38.325Z,25.00
2022-09-13T15:23:04.831Z,24.90
2022-09-13T15:25:31.844Z,24.90
2022-09-13T15:27:58.455Z,24.70
2022-09-13T15:30:24.981Z,24.60
2022-09-13T15:32:51.462Z,24.60
2022-09-13T15:35:18.008Z,24.50
2022-09-13T15:37:44.523Z,24.70
2022-09-13T15:40:11.084Z,24.70
2022-09-13T15:42:37.639Z,24.70
2022-09-13T15:45:04.157Z,24.70
2022-09-13T15:47:30.643Z,24.70
2022-09-13T15:49:58.518Z,24.70
2022-09-13T15:52:25.047Z,24.70
2022-09-13T15:54:51.559Z,24.70
2022-09-13T15:57:18.125Z,24.70
2022-09-13T15:59:44.640Z,24.70
2022-09-13T16:02:11.423Z,24.70
2022-09-13T16:04:38.181Z,24.50
2022-09-13T16:07:04.807Z,24.40
2022-09-13T16:09:31.414Z,24.40
2022-09-13T16:11:58.011Z,24.30
2022-09-13T16:14:24.685Z,24.10
2022-09-13T16:16:52.040Z,24.00
2022-09-13T16:19:18.652Z,24.00
2022-09-13T16:21:45.186Z,23.80
2022-09-13T16:24:11.742Z,23.70
2022-09-13T16:26:38.254Z,23.70
2022-09-13T16:29:04.833Z,23.50
2022-09-13T16:31:31.477Z,23.40
2022-09-13T16:33:58.232Z,23.40
2022-09-13T16:36:25.178Z,23.30
2022-09-13T16:38:51.747Z,23.10
2022-09-13T16:41:18.350Z,23.00
2022-09-13T16:43:44.882Z,22.90
2022-09-13T16:46:11.629Z,22.90
2022-09-13T16:48:38.293Z,22.80
2022-09-13T16:51:04.841Z,22.80
2022-09-13T16:53:31.421Z,22.80
2022-09-13T16:55:58.006Z,22.80
2022-09-13T16:58:24.531Z,22.70
2022-09-13T17:00:51.076Z,22.70
2022-09-13T17:03:17.679Z,22.70
2022-09-13T17:05:44.280Z,22.70
2022-09-13T17:08:10.813Z,22.70
2022-09-13T17:10:37.392Z,22.70
2022-09-13T17:13:05.127Z,22.70
2022-09-13T17:15:31.696Z,22.60
2022-09-13T17:17:58.254Z,22.60
2022-09-13T17:20:24.829Z,22.60
2022-09-13T17:22:51.356Z,22.50
2022-09-13T17:25:20.740Z,22.50
2022-09-13T17:27:47.535Z,22.40
2022-09-13T17:30:14.122Z,22.40
2022-09-13T17:32:40.715Z,22.30
2022-09-13T17:35:08.150Z,22.30
2022-09-13T17:37:34.667Z,22.30
2022-09-13T17:40:01.520Z,22.30
2022-09-13T17:42:28.192Z,22.20
2022-09-13T17:44:54.798Z,22.20
2022-09-13T17:47:21.350Z,22.20
2022-09-13T17:49:47.930Z,22.00
2022-09-13T17:52:14.519Z,22.00
2022-09-13T17:54:41.076Z,22.00
2022-09-13T17:57:07.664Z,22.00
2022-09-13T17:59:34.303Z,22.00
2022-09-13T18:02:01.035Z,21.90
2022-09-13T18:04:27.796Z,21.90
2022-09-13T18:06:54.362Z,21.90
2022-09-13T18:09:20.931Z,21.80
2022-09-13T18:11:47.438Z,21.70
2022-09-13T18:14:13.979Z,21.60
2022-09-13T18:16:40.527Z,21.50
2022-09-13T18:19:07.269Z,21.50
2022-09-13T18:21:34.075Z,21.50
2022-09-13T18:24:01.625Z,21.40
2022-09-13T18:26:28.209Z,21.30
2022-09-13T18:28:55.857Z,21.30
2022-09-13T18:31:22.423Z,21.30
2022-09-13T18:33:49.147Z,21.20
2022-09-13T18:36:16.209Z,21.20
2022-09-13T18:38:42.856Z,21.10
2022-09-13T18:41:09.419Z,21.10
2022-09-13T18:43:36.093Z,21.00
2022-09-13T18:46:04.963Z,20.90
2022-09-13T18:48:32.831Z,20.90
2022-09-13T18:50:59.561Z,20.90
2022-09-13T18:53:34.426Z,20.80
2022-09-13T18:56:01.354Z,20.80
2022-09-13T18:58:28.157Z,20.70
2022-09-13T19:00:54.743Z,20.70
2022-09-13T19:03:21.454Z,20.60
2022-09-13T19:05:48.672Z,20.60
2022-09-13T19:08:15.252Z,20.50
2022-09-13T19:10:41.863Z,20.50
2022-09-13T19:13:08.430Z,20.50
2022-09-13T19:15:35.389Z,20.50
2022-09-13T19:18:02.061Z,20.50
2022-09-13T19:20:28.655Z,20.50
2022-09-13T19:22:55.481Z,20.50
2022-09-13T19:25:22.923Z,20.50
2022-09-13T19:27:49.526Z,20.50
2022-09-13T19:30:16.135Z,20.40
2022-09-13T19:32:42.777Z,20.40
2022-09-13T19:35:09.677Z,20.40
2022-09-13T19:37:36.540Z,20.40
2022-09-13T19:40:04.427Z,20.30
2022-09-13T19:42:31.128Z,20.30
2022-09-13T19:44:57.706Z,20.30
2022-09-13T19:50:11.130Z,20.40
2022-09-13T19:52:38.196Z,20.30
2022-09-13T19:55:04.729Z,20.30
2022-09-13T19:57:31.589Z,20.30
2022-09-13T19:59:58.134Z,20.30
2022-09-13T20:02:25.083Z,20.30
2022-09-13T20:04:51.792Z,20.30
2022-09-13T20:07:18.341Z,20.30
2022-09-13T20:09:46.911Z,20.30
2022-09-13T20:12:13.440Z,20.30
2022-09-13T20:14:39.983Z,20.30
2022-09-13T20:17:07.097Z,20.30
2022-09-13T20:19:41.866Z,20.20
2022-09-13T20:22:11.362Z,20.20
2022-09-13T20:24:38.005Z,20.20
2022-09-13T20:27:04.631Z,20.20
2022-09-13T20:29:31.708Z,20.20
2022-09-13T20:32:00.005Z,20.20
2022-09-13T20:34:27.151Z,20.10
2022-09-13T20:36:53.781Z,20.10
2022-09-13T20:39:20.417Z,20.10
2022-09-13T20:41:49.173Z,20.10
2022-09-13T20:44:15.750Z,20.10
2022-09-13T20:46:43.223Z,20.10
2022-09-13T20:49:10.022Z,20.00
2022-09-13T20:51:37.199Z,20.00
2022-09-13T20:54:03.880Z,20.00
2022-09-13T20:56:30.728Z,20.00
2022-09-13T20:58:58.011Z,20.00
2022-09-13T21:01:24.997Z,20.00
2022-09-13T21:03:51.812Z,19.90
2022-09-13T21:06:19.212Z,19.90
2022-09-13T21:08:48.950Z,19.70
2022-09-13T21:11:15.555Z,19.70
2022-09-13T21:13:42.140Z,19.70
2022-09-13T21:16:08.675Z,19.70
2022-09-13T21:18:35.249Z,19.60
2022-09-13T21:21:01.843Z,19.60
2022-09-13T21:23:28.688Z,19.50
2022-09-13T21:25:55.210Z,19.40
2022-09-13T21:28:21.795Z,19.40
2022-09-13T21:30:48.454Z,19.40
2022-09-13T21:33:15.016Z,19.30
2022-09-13T21:35:41.660Z,19.30
2022-09-13T21:38:08.219Z,19.30
2022-09-13T21:40:34.915Z,19.30
2022-09-13T21:43:01.565Z,19.20
2022-09-13T21:45:28.142Z,19.20
2022-09-13T21:47:54.684Z,19.20
2022-09-13T21:50:21.357Z,19.10
2022-09-13T21:52:47.911Z,19.10
2022-09-13T21:55:14.462Z,19.00
2022-09-13T21:57:41.039Z,19.00
2022-09-13T22:00:09.089Z,18.90
2022-09-13T22:02:35.712Z,18.90
2022-09-13T22:05:02.349Z,18.90
2022-09-13T22:07:29.002Z,18.80
2022-09-13T22:09:55.740Z,18.80
2022-09-13T22:12:23.950Z,18.80
2022-09-13T22:14:50.898Z,18.80
2022-09-13T22:17:17.563Z,18.80
2022-09-13T22:19:44.100Z,18.80
2022-09-13T22:22:10.622Z,18.70
2022-09-13T22:24:37.136Z,18.70
2022-09-13T22:27:03.685Z,18.60
2022-09-13T22:29:30.288Z,18.50
2022-09-13T22:31:56.894Z,18.50
2022-09-13T22:34:23.925Z,18.40
2022-09-13T22:36:50.490Z,18.40
2022-09-13T22:39:17.078Z,18.40
2022-09-13T22:41:43.632Z,18.40
2022-09-13T22:44:10.248Z,18.30
2022-09-13T22:46:36.763Z,18.30
2022-09-13T22:49:03.269Z,18.30
2022-09-13T22:51:29.781Z,18.30
2022-09-13T22:53:56.349Z,18.20
2022-09-13T22:56:23.719Z,18.30
2022-09-13T22:58:50.318Z,18.30
2022-09-13T23:01:17.215Z,18.20
2022-09-13T23:03:44.042Z,18.20
2022-09-13T23:06:10.687Z,18.20
2022-09-13T23:08:37.314Z,18.20
2022-09-13T23:11:03.840Z,18.20
2022-09-13T23:13:30.464Z,18.20
2022-09-13T23:15:56.998Z,18.20
2022-09-13T23:18:23.484Z,18.20
2022-09-13T23:20:50.052Z,18.10
2022-09-13T23:23:16.585Z,18.10
2022-09-13T23:25:43.174Z,18.10
2022-09-13T23:28:09.674Z,18.10
2022-09-13T23:30:36.201Z,18.00
2022-09-13T23:33:02.784Z,18.00
2022-09-13T23:35:29.556Z,18.00
2022-09-13T23:37:56.124Z,17.90
2022-09-13T23:40:22.778Z,17.80
2022-09-13T23:42:49.484Z,17.80
2022-09-13T23:45:16.011Z,17.70
2022-09-13T23:47:42.537Z,17.60
2022-09-13T23:50:09.074Z,17.60
2022-09-13T23:52:35.629Z,17.50
2022-09-13T23:55:04.102Z,17.50
2022-09-13T23:57:30.698Z,17.50
2022-09-13T23:59:57.233Z,17.50
